Time;durP1;ratioP1;P1;durP2;ratioP2;P2;SDS_P1;SDS_P2;PMS_P1;PMS_P2;Temp;Humidity;BMP_temperature;BMP_pressure;BME280_temperature;BME280_humidity;BME280_pressure;Samples;Min_cycle;Max_cycle;Signal;HPM_P1;HPM_P2
2022/01/14 00:00:44;;;;;;;12.30;8.63;;;;;;;6.36;68.97;103780.13;5023754;28;20100;-64
2022/01/14 00:03:12;;;;;;;12.00;8.00;;;;;;;6.35;69.14;103771.28;5024164;28;20052;-64
2022/01/14 00:05:41;;;;;;;12.18;8.50;;;;;;;6.36;69.02;103785.47;5023098;28;20049;-64
2022/01/14 00:08:09;;;;;;;12.25;8.60;;;;;;;6.34;69.08;103787.44;5023551;28;20475;-64
2022/01/14 00:10:36;;;;;;;14.02;8.85;;;;;;;6.33;69.18;103794.59;5022746;28;20046;-64
2022/01/14 00:13:16;;;;;;;11.95;8.05;;;;;;;6.34;69.01;103795.44;5023725;28;20057;-64
2022/01/14 00:15:44;;;;;;;12.05;8.05;;;;;;;6.34;68.76;103795.44;5023421;28;20052;-64
2022/01/14 00:18:12;;;;;;;15.98;8.70;;;;;;;6.34;69.08;103792.75;5023734;28;20055;-64
2022/01/14 00:20:41;;;;;;;13.20;8.18;;;;;;;6.33;68.93;103783.06;5022808;28;20046;-64
2022/01/14 00:23:09;;;;;;;10.82;7.75;;;;;;;6.33;68.93;103786.56;5023720;28;20082;-64
2022/01/14 00:33:53;;;;;;;11.40;7.50;;;;;;;6.30;68.93;103767.28;5023315;28;20046;-64
2022/01/14 00:36:22;;;;;;;11.60;8.00;;;;;;;6.31;68.92;103750.28;5023677;28;20371;-64
2022/01/14 00:38:50;;;;;;;12.43;8.57;;;;;;;6.30;68.74;103754.75;5022095;28;20069;-64
2022/01/14 00:41:17;;;;;;;11.75;8.05;;;;;;;6.30;68.86;103753.91;5023194;28;20160;-64
2022/01/14 00:43:45;;;;;;;11.57;7.72;;;;;;;6.30;68.70;103753.91;5022940;28;20058;-64
2022/01/14 00:46:14;;;;;;;12.48;8.93;;;;;;;6.29;68.74;103746.88;5023449;28;20165;-64
2022/01/14 00:48:42;;;;;;;11.40;7.82;;;;;;;6.28;68.91;103745.19;5022213;28;20136;-64
2022/01/14 00:51:10;;;;;;;12.15;7.53;;;;;;;6.27;68.79;103736.31;5023262;28;20112;-64
2022/01/14 00:53:39;;;;;;;11.95;7.50;;;;;;;6.28;68.80;103739.84;5023138;28;20348;-64
2022/01/14 00:56:19;;;;;;;12.20;7.93;;;;;;;6.27;68.61;103730.97;5022475;28;20045;-64
2022/01/14 01:01:33;;;;;;;12.60;8.68;;;;;;;6.25;68.90;103724.91;5022381;28;20073;-64
2022/01/14 01:04:01;;;;;;;11.73;7.88;;;;;;;6.26;68.76;103726.59;5013798;28;20062;-64
2022/01/14 01:06:29;;;;;;;10.43;7.32;;;;;;;6.24;68.65;103715.19;5022202;28;20050;-64
2022/01/14 01:08:58;;;;;;;13.00;7.75;;;;;;;6.24;68.73;103717.88;5021946;28;20058;-64
2022/01/14 01:11:32;;;;;;;10.90;7.25;;;;;;;6.23;68.70;103718.84;5022697;28;20073;-64
2022/01/14 01:14:06;;;;;;;10.98;7.75;;;;;;;6.22;68.46;103711.81;5016219;28;20434;-64
2022/01/14 01:16:34;;;;;;;10.05;7.07;;;;;;;6.23;68.59;103713.50;5022454;28;20077;-64
2022/01/14 01:19:02;;;;;;;12.43;8.15;;;;;;;6.21;68.76;103712.78;5018742;28;20053;-64
2022/01/14 01:21:29;;;;;;;11.95;7.88;;;;;;;6.22;68.59;103714.47;5022431;28;20046;-64
2022/01/14 01:23:59;;;;;;;9.30;6.45;;;;;;;6.22;68.93;103713.63;5021581;28;20077;-64
2022/01/14 01:26:28;;;;;;;10.57;7.30;;;;;;;6.20;68.79;103706.59;5022009;28;20061;-64
2022/01/14 01:29:03;;;;;;;10.98;7.75;;;;;;;6.20;68.51;103706.59;5021569;28;20065;-64
2022/01/14 01:31:38;;;;;;;12.10;7.95;;;;;;;6.21;68.54;103707.44;5021928;28;20053;-64
2022/01/14 01:34:08;;;;;;;11.20;7.80;;;;;;;6.22;68.69;103702.94;5021624;28;20402;-64
2022/01/14 01:36:38;;;;;;;10.43;7.35;;;;;;;6.18;68.56;103700.50;5022179;28;20279;-64
2022/01/14 01:39:09;;;;;;;10.73;7.30;;;;;;;6.18;68.50;103705.00;5021278;28;20374;-64
2022/01/14 01:41:39;;;;;;;11.65;7.90;;;;;;;6.19;68.34;103709.38;5022070;28;20049;-64
2022/01/14 01:44:07;;;;;;;10.63;7.03;;;;;;;6.18;68.57;103702.34;5021492;28;20132;-64
2022/01/14 01:46:37;;;;;;;10.00;6.97;;;;;;;6.16;68.35;103709.63;5021845;28;20069;-64
2022/01/14 01:49:06;;;;;;;10.20;7.13;;;;;;;6.14;68.47;103698.22;5021842;28;20050;-64
2022/01/14 01:51:35;;;;;;;11.07;7.50;;;;;;;6.13;68.32;103693.84;5022358;28;20073;-64
2022/01/14 01:54:04;;;;;;;10.60;7.82;;;;;;;6.14;68.69;103698.22;5021107;28;20466;-64
2022/01/14 01:56:33;;;;;;;10.30;6.95;;;;;;;6.13;68.59;103692.03;5021727;28;20065;-64
2022/01/14 01:59:01;;;;;;;9.25;6.75;;;;;;;6.14;68.52;103690.19;5021640;28;20103;-64
2022/01/14 02:01:28;;;;;;;12.93;7.30;;;;;;;6.13;68.82;103689.34;5021607;28;20052;-64
2022/01/14 02:03:56;;;;;;;10.25;6.78;;;;;;;6.09;68.48;103681.72;5015019;28;20074;-64
2022/01/14 02:06:25;;;;;;;8.52;5.97;;;;;;;6.10;68.60;103686.94;5022137;28;20073;-64
2022/01/14 02:08:53;;;;;;;9.65;6.63;;;;;;;6.11;68.75;103690.44;5016254;28;20058;-64
2022/01/14 02:11:21;;;;;;;9.68;6.15;;;;;;;6.11;68.45;103687.78;5022183;28;20046;-64
2022/01/14 02:13:53;;;;;;;7.75;5.60;;;;;;;6.11;68.62;103687.78;5021252;28;20077;-64
2022/01/14 02:16:32;;;;;;;9.55;6.03;;;;;;;6.09;68.30;103677.22;5018487;28;20057;-64
2022/01/14 02:24:55;;;;;;;9.73;6.53;;;;;;;6.06;68.18;103682.81;5021504;28;20351;-64
2022/01/14 02:27:23;;;;;;;8.45;6.15;;;;;;;6.07;68.42;103678.31;5019198;28;20046;-64
2022/01/14 02:29:51;;;;;;;9.25;5.93;;;;;;;6.06;68.36;103674.81;5020505;28;20042;-64
2022/01/14 02:32:19;;;;;;;9.25;5.80;;;;;;;6.06;68.17;103673.94;5020859;28;20119;-64
2022/01/14 02:34:47;;;;;;;8.15;5.55;;;;;;;6.03;68.14;103669.69;5020736;28;20042;-64
2022/01/14 02:37:36;;;;;;;8.35;5.72;;;;;;;6.04;68.03;103667.88;5014069;28;20118;-64
2022/01/14 02:40:05;;;;;;;10.27;6.40;;;;;;;6.03;68.57;103666.19;5020337;28;20062;-64
2022/01/14 02:42:33;;;;;;;8.73;5.80;;;;;;;6.02;68.11;103662.66;5021112;28;20479;-64
2022/01/14 02:45:05;;;;;;;9.13;5.43;;;;;;;6.02;68.26;103661.81;5020628;28;20050;-64
2022/01/14 02:47:33;;;;;;;8.75;5.80;;;;;;;5.98;68.13;103653.22;5020891;28;20053;-64
2022/01/14 02:50:01;;;;;;;8.30;5.70;;;;;;;6.02;68.08;103656.47;5020989;28;20165;-64
2022/01/14 02:52:41;;;;;;;9.23;5.88;;;;;;;6.02;67.99;103656.47;5020701;28;20050;-64
2022/01/14 02:55:17;;;;;;;7.43;5.45;;;;;;;6.01;67.89;103642.28;5015788;28;20081;-64
2022/01/14 02:57:47;;;;;;;9.30;5.97;;;;;;;6.00;68.07;103640.59;5021138;28;20475;-64
2022/01/14 03:00:17;;;;;;;6.93;5.20;;;;;;;6.00;68.20;103640.59;5020584;28;20042;-64
2022/01/14 03:02:47;;;;;;;7.47;5.63;;;;;;;6.00;68.13;103642.41;5021196;28;20053;-64
2022/01/14 03:05:17;;;;;;;7.88;5.68;;;;;;;5.99;68.18;103644.22;5020269;28;20053;-64
2022/01/14 03:07:46;;;;;;;7.32;5.05;;;;;;;5.99;68.22;103643.38;5020859;28;20057;-64
2022/01/14 03:10:17;;;;;;;7.78;5.35;;;;;;;5.99;68.01;103643.38;5020737;28;20077;-64
2022/01/14 03:12:46;;;;;;;7.03;4.85;;;;;;;5.98;68.29;103647.03;5021287;28;20046;-64
2022/01/14 03:15:15;;;;;;;7.65;4.95;;;;;;;5.96;68.02;103647.13;5020147;28;20049;-64
2022/01/14 03:17:44;;;;;;;7.28;5.05;;;;;;;5.97;68.26;103638.16;5020774;28;20046;-64
2022/01/14 03:20:28;;;;;;;7.85;5.10;;;;;;;5.97;67.91;103648.00;5015031;28;20061;-64
2022/01/14 03:23:04;;;;;;;7.53;5.30;;;;;;;5.96;68.10;103646.28;5020365;28;20080;-64
2022/01/14 03:25:47;;;;;;;7.35;4.50;;;;;;;5.94;67.84;103634.88;5020280;28;20050;-64
2022/01/14 03:28:21;;;;;;;8.25;5.15;;;;;;;5.95;67.81;103647.25;5020423;28;20045;-64
2022/01/14 03:30:52;;;;;;;7.43;5.03;;;;;;;5.94;68.08;103637.56;5021538;28;20049;-64
2022/01/14 03:33:21;;;;;;;6.95;5.28;;;;;;;5.93;67.98;103643.88;5022937;28;20096;-64
2022/01/14 03:35:50;;;;;;;7.53;5.55;;;;;;;5.94;68.07;103648.22;5023948;28;20053;-64
2022/01/14 03:38:18;;;;;;;7.05;4.97;;;;;;;5.93;67.91;103646.53;5024480;28;20053;-64
2022/01/14 03:40:48;;;;;;;6.97;4.95;;;;;;;5.94;68.29;103642.91;5023660;28;20090;-64
2022/01/14 03:43:15;;;;;;;7.25;4.70;;;;;;;5.88;67.88;103634.38;5022953;28;20077;-64
2022/01/14 03:45:43;;;;;;;8.93;5.65;;;;;;;5.93;67.99;103641.19;5024368;28;20161;-64
2022/01/14 03:48:11;;;;;;;10.07;5.35;;;;;;;5.92;68.00;103640.34;5024072;28;20168;-64
2022/01/14 03:50:39;;;;;;;7.20;5.13;;;;;;;5.92;68.13;103645.69;5024238;28;20195;-64
2022/01/14 03:53:07;;;;;;;7.47;5.40;;;;;;;5.92;68.13;103639.50;5024028;28;20368;-64
2022/01/14 03:55:37;;;;;;;8.13;5.50;;;;;;;5.91;68.23;103644.00;5023370;28;20059;-64
2022/01/14 03:58:06;;;;;;;6.28;5.10;;;;;;;5.90;68.03;103644.97;5023426;28;20050;-64
2022/01/14 04:00:34;;;;;;;8.23;5.85;;;;;;;5.88;68.01;103634.38;5023010;28;20542;-64
2022/01/14 04:03:03;;;;;;;6.05;4.70;;;;;;;5.90;68.12;103644.13;5023934;28;20462;-64
2022/01/14 04:05:31;;;;;;;7.95;5.38;;;;;;;5.87;68.09;103643.34;5023133;28;20141;-64
2022/01/14 04:07:59;;;;;;;6.97;5.10;;;;;;;5.89;68.18;103645.94;5023359;28;20057;-64
2022/01/14 04:10:27;;;;;;;7.07;4.85;;;;;;;5.86;67.90;103635.47;5023391;28;20092;-64
2022/01/14 04:12:59;;;;;;;7.75;5.05;;;;;;;5.85;67.82;103647.13;5023513;28;20082;-64
2022/01/14 04:15:42;;;;;;;7.82;5.07;;;;;;;5.85;67.99;103653.31;5023338;28;20057;-64
2022/01/14 04:18:12;;;;;;;8.15;4.95;;;;;;;5.84;67.82;103645.41;5023729;28;20055;-64
2022/01/14 04:20:42;;;;;;;7.15;5.18;;;;;;;5.84;67.81;103646.25;5023336;28;20058;-64
2022/01/14 04:23:12;;;;;;;7.47;5.15;;;;;;;5.85;67.56;103644.44;5023408;28;20191;-64
2022/01/14 04:25:41;;;;;;;8.32;4.82;;;;;;;5.83;68.15;103641.91;5022530;28;20056;-64
2022/01/14 04:28:10;;;;;;;6.97;5.10;;;;;;;5.85;67.67;103649.78;5023451;28;20056;-64
2022/01/14 04:30:39;;;;;;;7.80;4.85;;;;;;;5.83;68.02;103646.38;5022775;28;20060;-64
2022/01/14 04:33:07;;;;;;;7.32;5.03;;;;;;;5.81;67.90;103643.84;5023314;28;20050;-64
2022/01/14 04:35:35;;;;;;;7.85;5.43;;;;;;;5.82;67.87;103634.00;5021209;28;20050;-64
2022/01/14 04:38:04;;;;;;;6.65;4.65;;;;;;;5.79;68.00;103626.25;5020180;28;20152;-64
2022/01/14 04:40:33;;;;;;;7.28;4.97;;;;;;;5.80;67.50;103628.81;5020596;28;20114;-64
2022/01/14 04:43:01;;;;;;;7.80;4.47;;;;;;;5.80;67.82;103622.63;5023430;28;20042;-64
2022/01/14 04:45:41;;;;;;;6.78;4.80;;;;;;;5.76;67.79;103622.00;5022805;28;20061;-64
2022/01/14 04:48:12;;;;;;;7.55;5.38;;;;;;;5.77;67.91;103623.72;5022622;28;20085;-64
2022/01/14 04:50:40;;;;;;;6.78;4.80;;;;;;;5.79;67.78;103628.91;5022900;28;20060;-64
2022/01/14 04:53:11;;;;;;;7.15;5.22;;;;;;;5.76;67.88;103622.00;5022163;28;20069;-64
2022/01/14 04:55:39;;;;;;;7.28;5.30;;;;;;;5.75;67.65;103614.97;5022075;28;20081;-64
2022/01/14 04:58:07;;;;;;;10.90;5.10;;;;;;;5.72;67.75;103611.69;5022402;28;20518;-64
2022/01/14 05:00:37;;;;;;;6.68;5.03;;;;;;;5.69;67.92;103593.28;5021934;28;20042;-64
2022/01/14 05:03:06;;;;;;;7.50;4.85;;;;;;;5.74;67.72;103599.94;5022360;28;20121;-64
2022/01/14 05:05:39;;;;;;;8.45;5.55;;;;;;;5.73;67.96;103592.91;5022094;28;20053;-64
2022/01/14 05:08:10;;;;;;;7.78;4.95;;;;;;;5.73;67.89;103590.22;5020352;28;20085;-64
2022/01/14 05:11:00;;;;;;;7.18;5.13;;;;;;;5.74;67.44;103591.09;5022078;28;20088;-64
2022/01/14 05:13:27;;;;;;;7.65;4.85;;;;;;;5.71;67.55;103588.66;5021507;28;20042;-64
2022/01/14 05:15:55;;;;;;;8.10;6.00;;;;;;;5.69;67.52;103587.94;5021403;28;20102;-64
2022/01/14 05:18:24;;;;;;;7.20;5.10;;;;;;;5.69;67.72;103590.59;5019873;28;20050;-64
2022/01/14 05:20:54;;;;;;;7.90;5.28;;;;;;;5.70;67.71;103587.81;5021746;28;20092;-64
2022/01/14 05:23:24;;;;;;;7.25;5.00;;;;;;;5.69;67.54;103590.59;5021633;28;20050;-64
2022/01/14 05:25:51;;;;;;;7.53;5.22;;;;;;;5.68;67.56;103599.56;5021904;28;20062;-64
2022/01/14 05:28:19;;;;;;;8.27;5.53;;;;;;;5.67;67.75;103595.22;5022190;28;20045;-64
2022/01/14 05:30:47;;;;;;;7.20;4.97;;;;;;;5.64;67.49;103582.97;5021170;28;20050;-64
2022/01/14 05:33:16;;;;;;;7.10;5.03;;;;;;;5.66;67.31;103583.69;5022437;28;20151;-64
2022/01/14 05:35:44;;;;;;;7.38;5.18;;;;;;;5.66;67.85;103582.84;5022280;28;20077;-64
2022/01/14 05:38:13;;;;;;;7.40;4.60;;;;;;;5.68;67.70;103580.91;5021576;28;20089;-64
2022/01/14 05:40:40;;;;;;;8.98;6.05;;;;;;;5.67;67.45;103598.72;5020836;28;20097;-64
2022/01/14 05:43:08;;;;;;;8.68;5.28;;;;;;;5.68;67.49;103589.75;5021434;28;20057;-64
2022/01/14 05:45:36;;;;;;;9.32;5.35;;;;;;;5.66;67.97;103589.03;5021713;28;20519;-64
2022/01/14 05:48:06;;;;;;;8.93;5.68;;;;;;;5.67;67.37;103584.53;5020639;28;20315;-64
2022/01/14 05:50:33;;;;;;;7.68;4.93;;;;;;;5.62;67.69;103576.06;5020629;28;20046;-64
2022/01/14 05:53:01;;;;;;;7.65;5.22;;;;;;;5.66;67.65;103581.03;5021266;28;20050;-64
2022/01/14 05:55:30;;;;;;;11.57;5.78;;;;;;;5.66;67.40;103581.03;5021885;28;20081;-64
2022/01/14 05:57:58;;;;;;;7.22;5.07;;;;;;;5.65;67.17;103581.16;5021819;28;20052;-64
2022/01/14 06:00:26;;;;;;;7.65;5.30;;;;;;;5.64;67.98;103572.28;5020602;28;20069;-64
2022/01/14 06:02:54;;;;;;;6.35;4.72;;;;;;;5.69;67.80;103577.25;5020619;28;20085;-64
2022/01/14 06:05:22;;;;;;;5.82;4.38;;;;;;;5.82;67.38;103572.63;5018972;28;20359;-64
2022/01/14 06:07:49;;;;;;;7.45;5.28;;;;;;;5.95;66.77;103578.72;5021709;28;20084;-64
2022/01/14 06:10:17;;;;;;;8.05;5.00;;;;;;;6.08;66.32;103584.75;5020952;28;20061;-65
2022/01/14 06:12:46;;;;;;;8.15;5.05;;;;;;;6.09;66.02;103578.44;5021460;28;20045;-65
2022/01/14 06:15:14;;;;;;;6.78;4.78;;;;;;;6.09;66.14;103565.09;5020752;28;20430;-65
2022/01/14 06:17:42;;;;;;;7.18;5.13;;;;;;;6.04;66.25;103564.63;5021198;28;20314;-64
2022/01/14 06:20:10;;;;;;;8.85;5.68;;;;;;;6.05;66.11;103573.47;5020941;28;20064;-64
2022/01/14 06:22:38;;;;;;;9.43;5.95;;;;;;;6.00;66.69;103570.34;5021089;28;20084;-64
2022/01/14 06:25:09;;;;;;;8.48;5.65;;;;;;;6.02;66.60;103569.22;5021015;28;20054;-63
2022/01/14 06:27:37;;;;;;;9.80;5.57;;;;;;;6.14;66.03;103564.72;5021595;28;20050;-63
2022/01/14 06:30:08;;;;;;;7.82;5.25;;;;;;;6.25;65.62;103572.69;5019468;28;20041;-64
2022/01/14 06:32:41;;;;;;;9.85;6.20;;;;;;;6.38;65.21;103569.84;5019157;28;20042;-64
2022/01/14 06:35:10;;;;;;;8.15;5.47;;;;;;;6.52;64.84;103572.22;5019816;28;20080;-64
2022/01/14 06:37:38;;;;;;;7.53;5.43;;;;;;;6.66;63.93;103579.94;5019767;28;20046;-62
2022/01/14 06:40:08;;;;;;;8.63;6.05;;;;;;;6.73;64.06;103581.09;5017979;28;20092;-64
2022/01/14 06:42:41;;;;;;;8.88;6.22;;;;;;;6.72;63.73;103582.09;5021655;28;20460;-64
2022/01/14 06:45:12;;;;;;;9.18;6.53;;;;;;;6.60;64.19;103567.06;5021662;28;20056;-63
2022/01/14 06:47:39;;;;;;;9.40;6.03;;;;;;;6.54;64.41;103575.59;5021298;28;20058;-64
2022/01/14 06:50:08;;;;;;;10.50;6.10;;;;;;;6.45;64.70;103579.91;5021238;28;20419;-62
2022/01/14 06:52:35;;;;;;;8.98;6.43;;;;;;;6.33;65.05;103572.91;5020581;28;20046;-63
2022/01/14 06:55:04;;;;;;;11.60;6.90;;;;;;;6.24;65.40;103568.31;5021066;28;20076;-62
2022/01/14 06:57:31;;;;;;;11.60;6.97;;;;;;;6.14;65.72;103568.22;5021220;28;20050;-64
2022/01/14 06:59:59;;;;;;;11.25;6.80;;;;;;;6.13;65.98;103563.00;5019519;28;20113;-63
2022/01/14 07:02:28;;;;;;;12.52;7.13;;;;;;;6.16;65.77;103566.28;5020830;28;20069;-64
2022/01/14 07:05:01;;;;;;;10.13;6.32;;;;;;;6.34;65.41;103571.06;5018484;28;20113;-64
2022/01/14 07:07:29;;;;;;;10.05;6.05;;;;;;;6.49;64.71;103565.31;5020442;28;20133;-62
2022/01/14 07:09:57;;;;;;;11.98;6.10;;;;;;;6.61;64.55;103574.13;5024067;28;20125;-65
2022/01/14 07:12:26;;;;;;;9.38;6.40;;;;;;;6.69;63.70;103570.81;5024364;28;20045;-66
2022/01/14 07:14:56;;;;;;;9.60;6.25;;;;;;;6.87;63.80;103584.44;5023361;28;20077;-66
2022/01/14 07:17:24;;;;;;;15.27;7.75;;;;;;;6.82;63.17;103585.66;5025126;28;20046;-66
2022/01/14 07:19:56;;;;;;;10.73;6.72;;;;;;;7.03;62.64;103590.97;5024605;28;20061;-66
2022/01/14 07:22:24;;;;;;;10.15;6.72;;;;;;;7.13;62.73;103580.34;5024749;28;20506;-67
2022/01/14 07:24:51;;;;;;;12.02;6.78;;;;;;;7.23;62.08;103583.06;5024133;28;20050;-67
2022/01/14 07:27:19;;;;;;;10.75;7.00;;;;;;;7.27;62.38;103587.19;5020308;28;20157;-67
2022/01/14 07:29:47;;;;;;;11.23;6.38;;;;;;;7.32;61.95;103591.16;5024495;28;20073;-68
2022/01/14 07:32:15;;;;;;;8.88;6.22;;;;;;;7.31;61.92;103591.28;5024626;28;20099;-67
2022/01/14 07:34:43;;;;;;;11.95;6.75;;;;;;;7.33;61.70;103592.00;5024178;28;20049;-67
2022/01/14 07:37:12;;;;;;;10.52;6.97;;;;;;;7.34;61.88;103591.03;5024511;28;20069;-66
2022/01/14 07:39:40;;;;;;;9.60;6.50;;;;;;;7.35;61.72;103592.72;5023596;28;20053;-67
2022/01/14 07:42:08;;;;;;;10.73;6.95;;;;;;;7.34;61.59;103597.22;5022792;28;20058;-67
2022/01/14 07:44:38;;;;;;;10.70;6.53;;;;;;;7.37;61.23;103599.63;5024023;28;20050;-67
2022/01/14 07:47:06;;;;;;;11.90;8.05;;;;;;;7.40;61.72;103598.50;5023189;28;20106;-66
2022/01/14 07:49:34;;;;;;;9.65;6.40;;;;;;;7.41;61.84;103592.19;5022967;28;20053;-66
2022/01/14 07:52:03;;;;;;;11.07;6.50;;;;;;;7.37;61.66;103588.06;5023662;28;20116;-66
2022/01/14 07:54:32;;;;;;;10.43;6.88;;;;;;;7.40;62.13;103594.00;5024056;28;20046;-66
2022/01/14 07:57:00;;;;;;;11.90;7.97;;;;;;;7.42;61.69;103589.38;5024401;28;20188;-64
2022/01/14 07:59:31;;;;;;;13.93;7.45;;;;;;;7.46;61.45;103581.91;5023492;28;20128;-65
2022/01/14 08:02:00;;;;;;;10.70;6.72;;;;;;;7.38;61.34;103589.78;5023084;28;20050;-67
2022/01/14 08:04:32;;;;;;;9.98;6.75;;;;;;;7.24;62.32;103584.78;5016728;28;20069;-61
2022/01/14 08:07:08;;;;;;;11.95;7.70;;;;;;;7.06;62.48;103566.66;5024118;28;20081;-65
2022/01/14 08:09:39;;;;;;;11.15;7.40;;;;;;;6.89;63.06;103569.97;5023260;28;20045;-63
2022/01/14 08:12:08;;;;;;;11.23;7.38;;;;;;;6.69;63.91;103568.13;5023633;28;20061;-63
2022/01/14 08:14:36;;;;;;;11.77;7.38;;;;;;;6.58;64.58;103589.56;5023426;28;20203;-63
2022/01/14 08:17:05;;;;;;;10.68;7.45;;;;;;;6.47;64.82;103579.78;5023644;28;20097;-64
2022/01/14 08:19:34;;;;;;;11.02;7.55;;;;;;;6.41;64.76;103582.94;5023159;28;20551;-64
2022/01/14 08:22:04;;;;;;;11.32;7.25;;;;;;;6.31;65.07;103588.19;5022918;28;20064;-63
2022/01/14 08:24:32;;;;;;;11.40;7.85;;;;;;;6.24;65.65;103589.69;5023013;28;20042;-64
2022/01/14 08:27:05;;;;;;;11.40;7.22;;;;;;;6.23;65.66;103577.31;5023000;28;20514;-64
2022/01/14 08:29:33;;;;;;;11.45;7.65;;;;;;;6.17;66.06;103580.47;5022242;28;20072;-64
2022/01/14 08:32:01;;;;;;;11.40;7.78;;;;;;;6.18;65.78;103574.16;5022710;28;20080;-63
2022/01/14 08:34:29;;;;;;;15.07;8.43;;;;;;;6.32;65.56;103565.00;5022747;28;20045;-63
2022/01/14 08:36:56;;;;;;;11.55;7.68;;;;;;;6.48;64.82;103574.31;5023109;28;20050;-64
2022/01/14 08:39:24;;;;;;;12.20;8.55;;;;;;;6.62;64.62;103575.81;5022447;28;20050;-64
2022/01/14 08:41:55;;;;;;;12.35;8.02;;;;;;;6.79;64.06;103577.06;5022891;28;20065;-64
2022/01/14 08:44:24;;;;;;;13.38;7.93;;;;;;;6.93;63.48;103555.34;5022861;28;20153;-63
2022/01/14 08:46:53;;;;;;;11.98;7.68;;;;;;;7.04;63.16;103559.75;5023260;28;20045;-64
2022/01/14 08:49:21;;;;;;;12.15;7.50;;;;;;;7.19;62.98;103569.13;5022578;28;20099;-63
2022/01/14 08:51:50;;;;;;;13.45;8.65;;;;;;;7.29;61.93;103566.50;5022958;28;20068;-64
2022/01/14 08:54:18;;;;;;;12.27;8.02;;;;;;;7.36;62.28;103589.91;5021721;28;20041;-64
2022/01/14 08:56:46;;;;;;;12.70;8.40;;;;;;;7.38;62.29;103592.44;5023163;28;20077;-63
2022/01/14 08:59:16;;;;;;;11.98;8.60;;;;;;;7.39;61.75;103597.66;5022000;28;20046;-64
2022/01/14 09:01:45;;;;;;;15.45;9.10;;;;;;;7.28;62.52;103596.91;5014244;28;20080;-63
2022/01/14 09:04:13;;;;;;;11.02;8.10;;;;;;;7.11;62.42;103579.63;5021547;28;20093;-64
2022/01/14 09:06:42;;;;;;;17.27;9.32;;;;;;;6.92;63.11;103577.72;5022854;28;20053;-63
2022/01/14 09:09:09;;;;;;;16.05;10.20;;;;;;;6.80;63.96;103576.09;5021815;28;20077;-64
2022/01/14 09:11:37;;;;;;;16.38;10.20;;;;;;;6.65;64.41;103566.69;5023135;28;20050;-64
2022/01/14 09:14:05;;;;;;;13.38;9.10;;;;;;;6.57;64.89;103561.16;5022176;28;20180;-63
2022/01/14 09:16:34;;;;;;;14.80;9.13;;;;;;;6.48;65.17;103581.47;5023125;28;20064;-64
2022/01/14 09:19:03;;;;;;;17.25;10.15;;;;;;;6.42;65.62;103573.97;5021891;28;20057;-63
2022/01/14 09:21:31;;;;;;;16.65;10.35;;;;;;;6.36;65.64;103580.66;5022982;28;20094;-63
2022/01/14 09:24:04;;;;;;;14.00;9.75;;;;;;;6.31;65.98;103585.53;5021543;28;20042;-64
2022/01/14 09:26:32;;;;;;;15.20;9.82;;;;;;;6.26;66.00;103576.22;5022483;28;20541;-63
2022/01/14 09:29:00;;;;;;;15.43;10.65;;;;;;;6.25;66.19;103588.72;5022035;28;20179;-64
2022/01/14 09:31:28;;;;;;;16.27;10.02;;;;;;;6.22;66.19;103591.63;5022381;28;20050;-63
2022/01/14 09:33:56;;;;;;;13.45;9.25;;;;;;;6.11;66.61;103580.97;5021753;28;20046;-64
2022/01/14 09:36:26;;;;;;;15.27;9.75;;;;;;;6.17;66.47;103592.00;5022427;28;20053;-64
2022/01/14 09:38:54;;;;;;;15.70;9.88;;;;;;;6.15;66.46;103593.97;5021069;28;20060;-63
2022/01/14 09:41:22;;;;;;;16.83;10.73;;;;;;;6.13;66.58;103597.72;5022119;28;20076;-63
2022/01/14 09:43:50;;;;;;;15.85;10.00;;;;;;;6.12;66.76;103594.22;5021762;28;20054;-63
2022/01/14 09:46:18;;;;;;;16.05;10.77;;;;;;;6.26;66.17;103578.88;5022124;28;20171;-63
2022/01/14 09:48:48;;;;;;;17.20;11.02;;;;;;;6.41;65.85;103567.78;5021536;28;20060;-64
2022/01/14 09:51:16;;;;;;;16.63;9.98;;;;;;;6.59;65.15;103569.88;5022351;28;20041;-63
2022/01/14 09:53:46;;;;;;;16.27;10.43;;;;;;;6.74;64.98;103568.59;5021457;28;20053;-64
2022/01/14 09:56:16;;;;;;;15.60;10.63;;;;;;;6.91;63.88;103578.69;5022081;28;20078;-64
2022/01/14 09:58:47;;;;;;;16.45;10.95;;;;;;;7.07;63.87;103591.56;5021530;28;20111;-64
2022/01/14 10:01:17;;;;;;;16.77;10.55;;;;;;;7.21;63.43;103595.72;5021581;28;20052;-64
2022/01/14 10:03:54;;;;;;;18.02;10.52;;;;;;;7.34;62.64;103583.84;5021642;28;20612;-64
2022/01/14 10:06:35;;;;;;;18.38;11.02;;;;;;;7.45;61.81;103593.59;5021922;28;20041;-64
2022/01/14 10:09:08;;;;;;;14.90;9.75;;;;;;;7.50;62.70;103599.41;5020984;28;20054;-64
2022/01/14 10:11:38;;;;;;;19.38;10.40;;;;;;;7.48;62.17;103609.41;5021946;28;20057;-64
2022/01/14 10:14:08;;;;;;;15.73;11.00;;;;;;;7.39;62.49;103612.88;5020985;28;20508;-64
2022/01/14 10:16:40;;;;;;;15.80;10.32;;;;;;;7.25;62.89;103613.22;5009755;28;20054;-64
2022/01/14 10:19:19;;;;;;;17.75;11.70;;;;;;;7.06;64.04;103614.78;5021090;28;20065;-64
2022/01/14 10:21:47;;;;;;;17.70;11.45;;;;;;;6.94;64.02;103620.34;5021645;28;20076;-64
2022/01/14 10:24:16;;;;;;;17.83;11.85;;;;;;;6.78;64.97;103620.81;5020649;28;20431;-64
2022/01/14 10:26:52;;;;;;;19.13;11.57;;;;;;;6.68;65.54;103627.91;5021705;28;20617;-63
2022/01/14 10:29:32;;;;;;;17.98;11.60;;;;;;;6.57;65.57;103620.78;5020679;28;20117;-64
2022/01/14 10:32:01;;;;;;;19.23;12.18;;;;;;;6.50;65.87;103628.44;5021568;28;20137;-64
2022/01/14 10:34:30;;;;;;;17.80;11.68;;;;;;;6.45;66.29;103624.47;5020868;28;20073;-64
2022/01/14 10:37:11;;;;;;;18.48;12.27;;;;;;;6.41;66.50;103629.22;5021318;28;20065;-64
2022/01/14 10:39:46;;;;;;;18.17;12.18;;;;;;;6.37;66.76;103622.41;5022103;28;20046;-64
2022/01/14 10:42:25;;;;;;;20.35;12.85;;;;;;;6.34;66.83;103616.47;5022740;28;20054;-64
2022/01/14 10:45:17;;;;;;;20.80;12.93;;;;;;;6.32;66.80;103613.09;5024510;28;20067;-64
2022/01/14 10:47:52;;;;;;;19.92;12.00;;;;;;;6.29;67.07;103603.50;5025642;28;20123;-64
2022/01/14 10:50:27;;;;;;;17.50;11.07;;;;;;;6.29;67.12;103606.19;5024931;28;20085;-64
2022/01/14 10:52:55;;;;;;;23.00;12.75;;;;;;;6.26;67.14;103600.25;5025309;28;20098;-64
2022/01/14 10:55:37;;;;;;;19.80;13.25;;;;;;;6.23;67.38;103593.31;5024183;28;20111;-64
2022/01/14 10:58:14;;;;;;;20.00;12.02;;;;;;;6.22;67.45;103594.31;5020967;28;20045;-64
2022/01/14 11:00:47;;;;;;;19.52;13.05;;;;;;;6.18;67.77;103590.19;5023198;28;20487;-64
2022/01/14 11:03:15;;;;;;;21.25;11.43;;;;;;;6.16;67.96;103586.78;5021008;28;20178;-64
2022/01/14 11:05:44;;;;;;;20.52;12.15;;;;;;;6.19;67.75;103591.88;5024329;28;20054;-64
2022/01/14 11:08:11;;;;;;;19.80;12.35;;;;;;;6.19;67.81;103589.22;5024722;28;20057;-64
2022/01/14 11:10:41;;;;;;;22.52;13.48;;;;;;;6.17;67.94;103592.00;5018874;28;20068;-64
2022/01/14 11:13:11;;;;;;;19.75;12.82;;;;;;;6.16;68.23;103587.66;5024890;28;20057;-64
2022/01/14 11:15:39;;;;;;;18.92;12.32;;;;;;;6.17;68.05;103580.47;5024065;28;20045;-64
2022/01/14 11:18:09;;;;;;;25.80;13.93;;;;;;;6.17;67.83;103576.00;5023779;28;20483;-64
2022/01/14 11:23:14;;;;;;;21.98;13.20;;;;;;;6.17;68.17;103581.31;5023923;28;20081;-64
2022/01/14 11:23:25;;;;;;;19.98;13.00;;;;;;;6.19;67.89;103583.88;5024330;28;20085;-64
2022/01/14 11:26:00;;;;;;;19.85;12.40;;;;;;;6.17;68.17;103580.47;5023178;28;20038;-64
2022/01/14 11:28:30;;;;;;;21.90;12.95;;;;;;;6.20;67.92;103575.72;5024661;28;20045;-64
2022/01/14 11:30:59;;;;;;;20.90;12.88;;;;;;;6.20;68.51;103566.88;5024065;28;20161;-64
2022/01/14 11:33:41;;;;;;;26.60;15.20;;;;;;;6.22;68.23;103575.59;5011383;28;20052;-64
2022/01/14 11:36:10;;;;;;;22.73;13.65;;;;;;;6.23;68.21;103573.78;5023896;28;20440;-64
2022/01/14 11:38:42;;;;;;;24.58;15.02;;;;;;;6.23;68.23;103579.13;5022692;28;20042;-64
2022/01/14 11:41:14;;;;;;;23.55;13.45;;;;;;;6.23;68.15;103569.28;5017755;28;20434;-66
2022/01/14 11:43:51;;;;;;;25.05;14.65;;;;;;;6.23;68.21;103569.28;5024546;28;20058;-64
2022/01/14 11:46:48;;;;;;;22.88;14.02;;;;;;;6.26;68.37;103581.53;5024496;28;20104;-64
2022/01/14 11:49:38;;;;;;;21.52;13.77;;;;;;;6.24;68.56;103575.47;5001394;28;20430;-64
2022/01/14 11:52:08;;;;;;;23.77;14.80;;;;;;;6.26;68.42;103571.72;4999138;28;20054;-64
2022/01/14 11:54:45;;;;;;;24.15;14.10;;;;;;;6.25;68.44;103582.53;5001285;28;20120;-64
2022/01/14 11:57:42;;;;;;;20.35;12.93;;;;;;;6.24;68.69;103575.47;5001864;28;20085;-64